Time;durP1;ratioP1;P1;durP2;ratioP2;P2;SDS_P1;SDS_P2;PMS_P1;PMS_P2;Temp;Humidity;BMP_temperature;BMP_pressure;BME280_temperature;BME280_humidity;BME280_pressure;Samples;Min_cycle;Max_cycle;Signal;HPM_P1;HPM_P2
2022/05/18 00:00:33;;;;;;;4.32;2.33;;;24.50;77.10;;;;;;6215239;23;20020;-57
2022/05/18 00:03:05;;;;;;;2.40;2.13;;;24.60;55.90;;;;;;6214881;23;20020;-57
2022/05/18 00:05:33;;;;;;;4.28;2.40;;;24.50;74.50;;;;;;6215363;23;19997;-57
2022/05/18 00:07:59;;;;;;;3.75;2.53;;;;;;;;;;6224875;23;20004;-57
2022/05/18 00:10:25;;;;;;;2.60;2.10;;;;;;;;;;6214773;23;20004;-57
2022/05/18 00:12:51;;;;;;;3.10;2.60;;;;;;;;;;6215012;23;20004;-57
2022/05/18 00:15:19;;;;;;;3.95;2.35;;;24.50;55.80;;;;;;6215033;23;19997;-57
2022/05/18 00:17:45;;;;;;;3.85;2.38;;;24.30;68.30;;;;;;6214962;23;20313;-57
2022/05/18 00:20:11;;;;;;;4.57;2.28;;;24.50;55.90;;;;;;6215014;23;20004;-58
2022/05/18 00:23:04;;;;;;;2.80;1.95;;;24.30;90.30;;;;;;6215175;23;20001;-56
2022/05/18 00:25:38;;;;;;;3.83;2.08;;;24.60;90.10;;;;;;6209579;23;20001;-57
2022/05/18 00:28:04;;;;;;;2.72;2.40;;;24.60;68.10;;;;;;6214738;23;20043;-57
2022/05/18 00:30:31;;;;;;;3.78;2.45;;;24.40;90.40;;;;;;6215017;23;20001;-57
2022/05/18 00:33:02;;;;;;;3.70;2.25;;;24.40;55.00;;;;;;6214634;23;19993;-57
2022/05/18 00:35:28;;;;;;;3.22;2.40;;;;;;;;;;6214921;23;20001;-57
2022/05/18 00:37:54;;;;;;;4.18;2.40;;;24.20;90.40;;;;;;6224609;23;20043;-57
2022/05/18 00:40:20;;;;;;;4.05;2.45;;;24.40;63.00;;;;;;6214966;23;20001;-57
2022/05/18 00:42:46;;;;;;;3.50;2.55;;;24.60;90.60;;;;;;6214531;23;20004;-57
2022/05/18 00:45:12;;;;;;;4.75;2.95;;;;;;;;;;6214472;23;19993;-57
2022/05/18 00:47:38;;;;;;;7.03;2.88;;;24.40;90.40;;;;;;6214872;23;20004;-58
2022/05/18 00:50:12;;;;;;;4.85;2.30;;;24.30;76.80;;;;;;6214769;23;20071;-57
2022/05/18 00:52:47;;;;;;;2.58;2.38;;;24.50;90.80;;;;;;6188401;23;20011;-58
2022/05/18 00:55:16;;;;;;;3.88;2.88;;;24.40;72.10;;;;;;6214867;23;20004;-57
2022/05/18 00:58:14;;;;;;;2.42;2.15;;;24.50;90.80;;;;;;6214330;23;20440;-57
2022/05/18 01:00:41;;;;;;;3.92;2.55;;;24.10;90.70;;;;;;6213379;23;20005;-57
2022/05/18 01:03:21;;;;;;;5.03;2.60;;;24.40;90.80;;;;;;6214143;23;20008;-56
2022/05/18 01:05:52;;;;;;;2.65;2.45;;;24.50;59.70;;;;;;6214743;23;20000;-57
2022/05/18 01:08:35;;;;;;;3.45;2.50;;;24.30;56.40;;;;;;6214619;23;20000;-56
2022/05/18 01:11:01;;;;;;;4.03;3.25;;;;;;;;;;6214672;23;20024;-57
2022/05/18 01:13:27;;;;;;;5.30;3.00;;;;;;;;;;6214535;23;20427;-57
2022/05/18 01:15:53;;;;;;;3.92;2.83;;;;;;;;;;6214491;23;20000;-57
2022/05/18 01:18:19;;;;;;;2.92;2.60;;;;;;;;;;6214689;23;20083;-57
2022/05/18 01:20:46;;;;;;;4.13;2.97;;;24.30;56.70;;;;;;6214599;23;20054;-58
2022/05/18 01:23:24;;;;;;;3.60;2.95;;;24.20;90.90;;;;;;6214145;23;20067;-57
2022/05/18 01:26:03;;;;;;;3.13;2.83;;;24.50;91.00;;;;;;6214620;23;20001;-57
2022/05/18 01:28:33;;;;;;;3.20;2.90;;;24.30;56.80;;;;;;6214616;23;19992;-57
2022/05/18 01:30:59;;;;;;;4.40;2.75;;;24.50;63.00;;;;;;6214362;23;20000;-57
2022/05/18 01:33:25;;;;;;;4.05;2.95;;;;;;;;;;6214422;23;20001;-57
2022/05/18 01:35:52;;;;;;;5.22;3.40;;;24.20;81.30;;;;;;6214643;23;20001;-56
2022/05/18 01:38:18;;;;;;;4.25;2.75;;;24.20;90.80;;;;;;6214729;23;20009;-57
2022/05/18 01:41:11;;;;;;;3.58;2.65;;;24.20;90.90;;;;;;6226342;23;20000;-57
2022/05/18 01:44:01;;;;;;;3.00;2.67;;;24.20;76.40;;;;;;6226325;23;20514;-58
2022/05/18 01:46:30;;;;;;;3.33;2.78;;;24.20;56.80;;;;;;6216196;23;20415;-57
2022/05/18 01:48:56;;;;;;;4.13;2.80;;;24.20;91.10;;;;;;6216601;23;20067;-58
2022/05/18 01:51:32;;;;;;;3.97;3.00;;;23.80;90.80;;;;;;6216385;23;20000;-57
2022/05/18 01:53:58;;;;;;;4.18;3.22;;;;;;;;;;6216193;23;20019;-57
2022/05/18 01:56:24;;;;;;;4.18;3.22;;;;;;;;;;6215929;23;20099;-57
2022/05/18 01:58:50;;;;;;;4.07;3.28;;;24.10;90.90;;;;;;6216368;23;19997;-58
2022/05/18 02:01:16;;;;;;;3.78;3.08;;;24.20;90.80;;;;;;6216263;23;20001;-58
2022/05/18 02:03:41;;;;;;;3.28;2.97;;;23.80;90.90;;;;;;6225921;23;20067;-58
2022/05/18 02:06:07;;;;;;;5.13;3.45;;;24.10;88.10;;;;;;6216353;23;20356;-58
2022/05/18 02:08:33;;;;;;;4.30;3.33;;;;;;;;;;6216170;23;20424;-57
2022/05/18 02:10:59;;;;;;;5.55;3.05;;;;;;;;;;6215972;23;20012;-58
2022/05/18 02:13:25;;;;;;;5.63;3.75;;;;;;;;;;6216245;23;20000;-58
2022/05/18 02:15:51;;;;;;;3.53;3.20;;;;;;;;;;6215775;23;20001;-57
2022/05/18 02:18:17;;;;;;;3.28;2.97;;;;;;;;;;6216182;23;20324;-57
2022/05/18 02:20:43;;;;;;;3.58;2.80;;;;;;;;;;6215717;23;20075;-59
2022/05/18 02:23:09;;;;;;;3.92;3.55;;;24.20;68.80;;;;;;6215749;23;20059;-58
2022/05/18 02:25:37;;;;;;;4.95;3.30;;;24.10;57.00;;;;;;6216123;23;19992;-58
2022/05/18 02:28:03;;;;;;;6.57;3.53;;;;;;;;;;6216184;23;19996;-59
2022/05/18 02:30:29;;;;;;;3.55;3.25;;;;;;;;;;6216076;23;20004;-58
2022/05/18 02:32:55;;;;;;;4.07;3.33;;;;;;;;;;6215999;23;20050;-57
2022/05/18 02:35:21;;;;;;;5.75;3.13;;;;;;;;;;6215970;23;19999;-57
2022/05/18 02:37:47;;;;;;;4.47;3.30;;;;;;;;;;6215910;23;20382;-58
2022/05/18 02:40:13;;;;;;;4.85;3.10;;;;;;;;;;6216033;23;20052;-57
2022/05/18 02:42:39;;;;;;;3.88;3.30;;;;;;;;;;6215577;23;20015;-57
2022/05/18 02:45:06;;;;;;;4.25;3.28;;;23.70;57.20;;;;;;6215934;23;20008;-58
2022/05/18 02:47:32;;;;;;;5.88;3.45;;;24.30;90.70;;;;;;6215534;23;20001;-57
2022/05/18 02:49:57;;;;;;;5.22;3.75;;;23.90;90.60;;;;;;6225588;23;20416;-57
2022/05/18 02:52:23;;;;;;;4.65;3.40;;;24.10;69.10;;;;;;6215816;23;20001;-57
2022/05/18 02:57:33;;;;;;;5.00;3.97;;;21.70;55.10;;;;;;6225566;23;20039;-57
2022/05/18 02:59:59;;;;;;;4.10;3.63;;;24.20;78.10;;;;;;6215772;23;20487;-57
2022/05/18 03:02:25;;;;;;;5.10;3.58;;;24.10;56.80;;;;;;6215687;23;20004;-56
2022/05/18 03:04:51;;;;;;;3.97;3.38;;;24.10;66.10;;;;;;6215196;23;20011;-56
2022/05/18 03:07:17;;;;;;;7.03;3.50;;;;;;;;;;6215550;23;20000;-45
2022/05/18 03:09:43;;;;;;;4.82;3.22;;;;;;;;;;6215671;23;20080;-45
2022/05/18 03:12:09;;;;;;;5.10;3.58;;;24.20;56.30;;;;;;6215294;23;20078;-45
2022/05/18 03:14:35;;;;;;;4.82;3.65;;;;;;;;;;6215621;23;20001;-45
2022/05/18 03:17:01;;;;;;;5.20;3.25;;;;;;;;;;6215554;23;20012;-44
2022/05/18 03:19:27;;;;;;;3.50;3.10;;;24.30;56.20;;;;;;6225388;23;20331;-45
2022/05/18 03:24:38;;;;;;;5.38;3.55;;;23.80;90.40;;;;;;6225436;23;20450;-45
2022/05/18 03:27:05;;;;;;;5.25;3.50;;;23.70;90.50;;;;;;6215731;23;20079;-45
2022/05/18 03:29:32;;;;;;;4.28;3.67;;;24.00;76.20;;;;;;6215519;23;19999;-45
2022/05/18 03:31:58;;;;;;;3.72;3.30;;;;;;;;;;6215130;23;20470;-45
2022/05/18 03:34:24;;;;;;;3.65;3.35;;;24.10;90.40;;;;;;6215454;23;20001;-45
2022/05/18 03:36:50;;;;;;;4.93;2.90;;;24.40;90.60;;;;;;6215347;23;20036;-45
2022/05/18 03:39:15;;;;;;;3.58;2.90;;;24.30;90.60;;;;;;6215428;23;19993;-44
2022/05/18 03:41:42;;;;;;;4.75;3.67;;;;;;;;;;6215393;23;19997;-45
2022/05/18 03:44:08;;;;;;;4.07;3.65;;;;;;;;;;6215444;23;20001;-45
2022/05/18 03:46:34;;;;;;;4.05;3.00;;;23.70;90.50;;;;;;6215391;23;20314;-44
2022/05/18 03:49:00;;;;;;;4.05;3.28;;;24.10;90.60;;;;;;6215352;23;19997;-45
2022/05/18 03:51:26;;;;;;;3.58;3.28;;;24.40;90.70;;;;;;6215007;23;20000;-48
2022/05/18 03:53:52;;;;;;;6.63;3.80;;;24.10;56.40;;;;;;6215280;23;19997;-45
2022/05/18 03:56:18;;;;;;;5.55;3.15;;;24.30;90.70;;;;;;6215191;23;20012;-44
2022/05/18 03:58:44;;;;;;;4.22;3.15;;;;;;;;;;6215251;23;20320;-45
2022/05/18 04:01:10;;;;;;;4.40;3.55;;;24.00;90.50;;;;;;6214419;23;20450;-45
2022/05/18 04:03:38;;;;;;;3.75;3.25;;;24.20;90.50;;;;;;6215028;23;20024;-45
2022/05/18 04:06:04;;;;;;;5.88;3.40;;;24.10;90.60;;;;;;6215170;23;20008;-45
2022/05/18 04:08:30;;;;;;;4.88;3.47;;;24.30;90.80;;;;;;6214832;23;20527;-45
2022/05/18 04:10:55;;;;;;;5.43;3.78;;;23.90;90.60;;;;;;6214772;23;19997;-45
2022/05/18 04:13:24;;;;;;;7.28;3.85;;;24.00;56.80;;;;;;6215108;23;19997;-45
2022/05/18 04:15:51;;;;;;;5.13;3.40;;;;;;;;;;6215016;23;20011;-45
2022/05/18 04:18:16;;;;;;;5.93;3.20;;;24.30;90.60;;;;;;6188028;23;20471;-45
2022/05/18 04:20:42;;;;;;;3.75;3.40;;;24.10;90.50;;;;;;6215131;23;20027;-46
2022/05/18 04:23:09;;;;;;;6.80;3.50;;;;;;;;;;6215024;23;20024;-45
2022/05/18 04:25:36;;;;;;;3.70;3.00;;;24.30;81.00;;;;;;6215002;23;20080;-45
2022/05/18 04:28:02;;;;;;;5.30;3.45;;;;;;;;;;6214890;23;20001;-44
2022/05/18 04:30:28;;;;;;;4.60;3.30;;;24.40;90.70;;;;;;6214887;23;20515;-44
2022/05/18 04:32:54;;;;;;;3.95;3.30;;;24.00;58.60;;;;;;6214903;23;20305;-45
2022/05/18 04:35:23;;;;;;;5.28;3.20;;;24.20;90.50;;;;;;6214887;23;19997;-45
2022/05/18 04:37:49;;;;;;;4.20;3.03;;;24.30;62.70;;;;;;6224604;23;20133;-45
2022/05/18 04:40:15;;;;;;;4.03;3.15;;;;;;;;;;6224654;23;20359;-45
2022/05/18 04:42:41;;;;;;;4.15;3.10;;;;;;;;;;6214833;23;20079;-44
2022/05/18 04:45:09;;;;;;;4.55;3.40;;;25.70;57.20;;;;;;6214831;23;20028;-45
2022/05/18 04:47:35;;;;;;;4.63;3.50;;;24.30;70.10;;;;;;6214303;23;19997;-45
2022/05/18 04:50:01;;;;;;;5.78;3.00;;;24.00;76.70;;;;;;6214380;23;20450;-45
2022/05/18 04:52:27;;;;;;;3.55;2.97;;;;;;;;;;6224521;23;20024;-45
2022/05/18 04:54:53;;;;;;;4.50;3.22;;;;;;;;;;6214668;23;20008;-45
2022/05/18 04:57:19;;;;;;;5.22;3.22;;;24.20;56.00;;;;;;6214635;23;20012;-45
2022/05/18 04:59:45;;;;;;;3.33;2.63;;;;;;;;;;6214749;23;20001;-45
2022/05/18 05:02:11;;;;;;;3.30;2.78;;;24.20;85.30;;;;;;6214069;23;20001;-45
2022/05/18 05:04:37;;;;;;;4.47;3.45;;;24.30;90.20;;;;;;6214173;23;20062;-45
2022/05/18 05:07:04;;;;;;;4.90;3.13;;;24.30;83.00;;;;;;6214488;23;19993;-45
2022/05/18 05:09:29;;;;;;;3.42;2.85;;;24.20;90.30;;;;;;6214242;23;20039;-45
2022/05/18 05:11:56;;;;;;;2.97;2.67;;;24.00;90.10;;;;;;6214557;23;19997;-45
2022/05/18 05:14:22;;;;;;;3.20;2.55;;;24.00;90.20;;;;;;6214606;23;20001;-44
2022/05/18 05:16:49;;;;;;;3.13;2.40;;;24.30;57.40;;;;;;6214265;23;20004;-45
2022/05/18 05:19:15;;;;;;;3.60;2.10;;;24.10;56.10;;;;;;6214434;23;20005;-46
2022/05/18 05:21:44;;;;;;;2.47;2.28;;;24.30;81.80;;;;;;6214551;23;20087;-46
2022/05/18 05:24:11;;;;;;;2.00;1.90;;;24.10;56.40;;;;;;6214476;23;20001;-46
2022/05/18 05:26:37;;;;;;;3.30;2.10;;;23.70;73.00;;;;;;6214540;23;20008;-46
2022/05/18 05:29:03;;;;;;;2.95;2.45;;;24.00;56.00;;;;;;6214221;23;19997;-47
2022/05/18 05:31:29;;;;;;;3.13;2.47;;;23.70;90.20;;;;;;6224242;23;20397;-46
2022/05/18 05:33:56;;;;;;;3.35;2.05;;;24.10;59.60;;;;;;6214504;23;20021;-46
2022/05/18 05:36:22;;;;;;;2.53;2.08;;;24.40;90.30;;;;;;6214376;23;20012;-46
2022/05/18 05:38:49;;;;;;;2.80;2.38;;;24.20;90.40;;;;;;6214088;23;20067;-46
2022/05/18 05:41:15;;;;;;;3.22;2.53;;;24.40;75.80;;;;;;6214014;23;20008;-46
2022/05/18 05:43:41;;;;;;;2.67;2.30;;;;;;;;;;6214381;23;20000;-46
2022/05/18 05:46:10;;;;;;;3.05;2.42;;;23.90;56.60;;;;;;6213970;23;20031;-46
2022/05/18 05:48:36;;;;;;;3.35;2.38;;;24.00;56.30;;;;;;6214307;23;20005;-45
2022/05/18 05:51:04;;;;;;;2.20;2.00;;;24.00;90.30;;;;;;6214414;23;19993;-46
2022/05/18 05:53:32;;;;;;;2.42;2.00;;;23.90;90.10;;;;;;6214320;23;20005;-60
2022/05/18 05:55:58;;;;;;;1.98;1.88;;;24.30;90.30;;;;;;6214309;23;20028;-58
2022/05/18 05:58:26;;;;;;;2.95;2.40;;;24.20;90.20;;;;;;6214028;23;20012;-58
2022/05/18 06:00:52;;;;;;;3.63;1.90;;;24.00;90.20;;;;;;6213857;23;20008;-57
2022/05/18 06:03:19;;;;;;;18.00;2.20;;;24.00;90.20;;;;;;6213416;23;20015;-57
2022/05/18 06:05:45;;;;;;;3.42;2.35;;;24.30;56.50;;;;;;6214217;23;20072;-55
2022/05/18 06:08:11;;;;;;;5.97;2.10;;;;;;;;;;6214294;23;20001;-57
2022/05/18 06:10:38;;;;;;;3.05;2.35;;;24.20;56.90;;;;;;6214311;23;20324;-58
2022/05/18 06:13:09;;;;;;;3.92;2.17;;;24.00;56.90;;;;;;6214350;23;20008;-56
2022/05/18 06:15:35;;;;;;;4.18;1.92;;;;;;;;;;6214212;23;20001;-57
2022/05/18 06:18:01;;;;;;;4.03;2.20;;;24.20;56.30;;;;;;6214118;23;20019;-56
2022/05/18 06:20:27;;;;;;;5.53;2.38;;;24.10;56.70;;;;;;6214052;23;19997;-58
2022/05/18 06:22:53;;;;;;;3.15;2.00;;;;;;;;;;6214273;23;19997;-55
2022/05/18 06:25:19;;;;;;;3.80;2.20;;;24.30;73.60;;;;;;6215185;23;19999;-57
2022/05/18 06:27:45;;;;;;;2.20;1.77;;;;;;;;;;6215853;23;20099;-58
2022/05/18 06:30:13;;;;;;;2.15;1.77;;;24.20;57.00;;;;;;6216049;23;20012;-56
2022/05/18 06:32:39;;;;;;;2.97;1.90;;;24.00;90.00;;;;;;6215649;23;19997;-43
2022/05/18 06:35:05;;;;;;;3.75;2.13;;;24.40;56.70;;;;;;6225691;23;20003;-43
2022/05/18 06:37:31;;;;;;;3.80;2.05;;;;;;;;;;6215887;23;20041;-46
2022/05/18 06:39:57;;;;;;;4.57;2.22;;;24.20;88.10;;;;;;6216085;23;19997;-45
2022/05/18 06:42:23;;;;;;;4.03;1.95;;;24.00;78.10;;;;;;6215962;23;20375;-45
2022/05/18 06:44:49;;;;;;;4.40;1.85;;;;;;;;;;6216004;23;19997;-45
2022/05/18 06:47:15;;;;;;;6.10;2.00;;;24.40;89.80;;;;;;6216016;23;20009;-44
2022/05/18 06:49:41;;;;;;;4.25;2.40;;;24.30;56.50;;;;;;6215897;23;20005;-45
2022/05/18 06:52:09;;;;;;;5.82;1.73;;;;;;;;;;6225881;23;19996;-45
2022/05/18 06:54:35;;;;;;;2.42;1.92;;;;;;;;;;6215765;23;20323;-45
2022/05/18 06:57:01;;;;;;;5.35;2.10;;;;;;;;;;6215679;23;20031;-45
2022/05/18 06:59:27;;;;;;;4.40;1.90;;;;;;;;;;6215466;23;20408;-45
2022/05/18 07:01:53;;;;;;;3.08;1.83;;;;;;;;;;6225181;23;20064;-44
2022/05/18 07:04:19;;;;;;;3.15;1.70;;;;;;;;;;6224995;23;20044;-45
2022/05/18 07:06:45;;;;;;;3.47;1.83;;;23.10;57.60;;;;;;6225501;23;20004;-44
2022/05/18 07:09:14;;;;;;;3.30;1.73;;;24.30;56.70;;;;;;6215779;23;20049;-44
2022/05/18 07:11:41;;;;;;;2.40;1.67;;;24.20;56.60;;;;;;6215573;23;20000;-45
2022/05/18 07:14:08;;;;;;;10.77;2.80;;;24.30;89.60;;;;;;6215826;23;20012;-44
2022/05/18 07:16:34;;;;;;;3.40;1.70;;;23.90;90.20;;;;;;6215713;23;20031;-45
2022/05/18 07:19:00;;;;;;;3.90;1.50;;;24.30;90.60;;;;;;6215843;23;20001;-45
2022/05/18 07:21:26;;;;;;;3.17;1.70;;;24.00;90.50;;;;;;6215524;23;20054;-45
2022/05/18 07:23:53;;;;;;;2.83;1.70;;;24.50;90.70;;;;;;6225573;23;19996;-43
2022/05/18 07:26:21;;;;;;;3.22;1.75;;;24.50;58.20;;;;;;6215937;23;19997;-43
2022/05/18 07:28:46;;;;;;;5.45;2.00;;;24.40;90.70;;;;;;6215372;23;20578;-43
2022/05/18 07:31:12;;;;;;;4.53;1.70;;;24.10;90.60;;;;;;6215365;23;20000;-44
2022/05/18 07:33:38;;;;;;;3.05;1.67;;;24.20;90.60;;;;;;6215766;23;20023;-44
2022/05/18 07:36:05;;;;;;;2.67;1.70;;;23.80;90.40;;;;;;6224828;23;20483;-44
2022/05/18 07:38:32;;;;;;;2.15;1.42;;;24.30;56.90;;;;;;6215719;23;20313;-44
2022/05/18 07:40:58;;;;;;;4.13;1.90;;;23.80;90.40;;;;;;6215679;23;20427;-44
2022/05/18 07:43:24;;;;;;;5.35;1.63;;;24.50;90.50;;;;;;6215779;23;20024;-44
2022/05/18 07:45:52;;;;;;;2.63;1.60;;;24.10;90.40;;;;;;6215677;23;20328;-44
2022/05/18 07:48:18;;;;;;;2.20;1.30;;;24.30;90.40;;;;;;6215317;23;20412;-45
2022/05/18 07:50:43;;;;;;;1.40;1.30;;;24.50;90.60;;;;;;6215604;23;20008;-44
2022/05/18 07:53:10;;;;;;;5.05;1.63;;;24.40;80.30;;;;;;6215439;23;20063;-44
2022/05/18 07:55:35;;;;;;;3.35;1.77;;;24.20;78.90;;;;;;6215545;23;20031;-44
2022/05/18 07:58:06;;;;;;;3.03;1.60;;;24.30;68.70;;;;;;6224937;23;20005;-44
2022/05/18 08:00:32;;;;;;;4.22;1.65;;;24.50;90.60;;;;;;6215552;23;20020;-44
2022/05/18 08:02:58;;;;;;;5.75;1.48;;;24.40;76.70;;;;;;6215204;23;20004;-44
2022/05/18 08:05:24;;;;;;;5.47;1.73;;;24.40;90.60;;;;;;6215519;23;20001;-44
2022/05/18 08:07:49;;;;;;;2.28;1.90;;;24.50;90.30;;;;;;6215420;23;20007;-44
2022/05/18 08:15:51;;;;;;;3.65;1.75;;;27.40;58.50;;;;;;6214987;23;20472;-45
2022/05/18 08:18:18;;;;;;;3.78;1.50;;;24.40;56.70;;;;;;6215324;23;20004;-44
2022/05/18 08:20:45;;;;;;;3.42;1.73;;;24.20;90.40;;;;;;6215001;23;19996;-44
2022/05/18 08:23:11;;;;;;;4.18;1.77;;;24.30;90.40;;;;;;6215401;23;20486;-44
2022/05/18 08:25:38;;;;;;;3.60;2.15;;;24.50;56.50;;;;;;6215301;23;20000;-44
2022/05/18 08:28:05;;;;;;;3.13;1.38;;;24.70;90.50;;;;;;6215228;23;20363;-44
2022/05/18 08:30:31;;;;;;;5.72;1.77;;;24.70;90.40;;;;;;6215331;23;19997;-43
2022/05/18 08:33:01;;;;;;;2.72;1.60;;;24.80;56.20;;;;;;6215147;23;20001;-44
2022/05/18 08:35:28;;;;;;;1.98;1.30;;;24.90;68.40;;;;;;6224994;23;20007;-43
2022/05/18 08:37:55;;;;;;;2.67;1.50;;;24.90;90.30;;;;;;6224808;23;20009;-44
2022/05/18 08:40:29;;;;;;;4.43;1.48;;;24.90;90.30;;;;;;6214828;23;20382;-43
2022/05/18 08:43:00;;;;;;;3.85;1.30;;;24.80;83.80;;;;;;6215084;23;20000;-44
2022/05/18 08:45:30;;;;;;;4.82;1.83;;;24.70;90.20;;;;;;6215065;23;19997;-44
2022/05/18 08:48:32;;;;;;;3.38;1.90;;;24.90;90.20;;;;;;6215160;23;20007;-44
2022/05/18 08:51:05;;;;;;;2.72;1.60;;;24.40;90.00;;;;;;6215101;23;20008;-43
2022/05/18 08:53:46;;;;;;;1.38;1.20;;;24.70;54.70;;;;;;6215073;23;19993;-44
2022/05/18 08:56:20;;;;;;;1.60;1.10;;;24.70;90.00;;;;;;6214623;23;20005;-44
2022/05/18 08:58:49;;;;;;;2.20;1.25;;;24.80;55.50;;;;;;6215013;23;20377;-60
2022/05/18 09:01:19;;;;;;;2.17;1.30;;;24.30;89.50;;;;;;6214372;23;20029;-60
2022/05/18 09:03:54;;;;;;;1.85;1.00;;;24.60;63.70;;;;;;6214554;23;20012;-60
2022/05/18 09:06:48;;;;;;;3.08;1.35;;;24.60;89.30;;;;;;6215008;23;20427;-60
2022/05/18 09:12:25;;;;;;;2.35;1.20;;;;;;;;;;6214203;23;20011;-61
2022/05/18 09:14:52;;;;;;;3.83;1.30;;;24.70;65.60;;;;;;6214687;23;19993;-43
2022/05/18 09:17:39;;;;;;;1.60;0.98;;;24.50;89.40;;;;;;6214542;23;20063;-44
2022/05/18 09:20:34;;;;;;;1.98;1.00;;;26.80;55.10;;;;;;6214794;23;20127;-44
2022/05/18 09:23:37;;;;;;;1.55;1.20;;;25.30;89.60;;;;;;6214725;23;20320;-44
2022/05/18 09:26:02;;;;;;;3.33;1.33;;;24.90;88.90;;;;;;6214698;23;20007;-44
2022/05/18 09:28:52;;;;;;;1.83;1.23;;;25.20;89.00;;;;;;6214730;23;20075;-44
2022/05/18 09:31:55;;;;;;;1.77;1.02;;;25.50;54.80;;;;;;6214273;23;20038;-43
2022/05/18 09:35:00;;;;;;;2.72;1.02;;;25.20;53.50;;;;;;6214715;23;20055;-43
2022/05/18 09:37:38;;;;;;;3.15;1.50;;;25.10;88.80;;;;;;6214679;23;20376;-44
2022/05/18 09:40:14;;;;;;;1.88;0.82;;;25.10;88.30;;;;;;6214319;23;20099;-44
2022/05/18 09:42:45;;;;;;;0.77;0.75;;;25.40;88.60;;;;;;6214109;23;20003;-44
2022/05/18 09:45:16;;;;;;;1.80;1.20;;;25.20;58.00;;;;;;6214399;23;20364;-43
2022/05/18 09:47:53;;;;;;;2.38;0.90;;;25.40;53.10;;;;;;6214115;23;20490;-44
2022/05/18 09:50:19;;;;;;;1.73;0.85;;;25.40;62.40;;;;;;6214541;23;19996;-44
2022/05/18 09:52:47;;;;;;;2.40;1.00;;;25.70;61.00;;;;;;6188164;23;20048;-45
2022/05/18 09:55:16;;;;;;;2.53;0.82;;;25.50;53.80;;;;;;6224406;23;20472;-44
2022/05/18 09:57:50;;;;;;;2.58;1.13;;;25.50;88.20;;;;;;6214480;23;20009;-44
2022/05/18 10:00:20;;;;;;;0.65;0.63;;;25.40;87.70;;;;;;6215549;23;20348;-44
2022/05/18 10:07:27;;;;;;;2.88;0.90;;;26.00;53.70;;;;;;6216368;23;20398;-45
2022/05/18 10:08:42;;;;;;;1.50;1.10;;;25.80;78.30;;;;;;6216112;23;20011;-44
2022/05/18 10:11:14;;;;;;;1.65;0.90;;;25.40;85.60;;;;;;6216957;23;20001;-45
2022/05/18 10:13:54;;;;;;;1.20;0.90;;;25.60;52.50;;;;;;6226399;23;20313;-43
2022/05/18 10:16:43;;;;;;;1.60;1.10;;;25.40;86.90;;;;;;6216029;23;19997;-43
2022/05/18 10:19:25;;;;;;;2.28;0.93;;;25.70;87.20;;;;;;6192970;23;20064;-43
2022/05/18 10:21:57;;;;;;;1.65;0.98;;;25.70;53.00;;;;;;6225923;23;20015;-43
2022/05/18 10:24:45;;;;;;;2.00;1.00;;;25.90;76.40;;;;;;6225858;23;20055;-43
2022/05/18 10:27:17;;;;;;;1.35;0.82;;;26.10;63.30;;;;;;6215791;23;19993;-43
2022/05/18 10:29:51;;;;;;;1.00;0.73;;;25.70;86.70;;;;;;6216070;23;20000;-43
2022/05/18 10:32:27;;;;;;;1.15;0.80;;;25.80;52.20;;;;;;6215521;23;19992;-43
2022/05/18 10:34:54;;;;;;;1.95;1.05;;;25.80;52.70;;;;;;6215784;23;20027;-43
2022/05/18 10:37:31;;;;;;;2.10;0.90;;;25.50;86.40;;;;;;6215284;23;20019;-43
2022/05/18 10:40:04;;;;;;;1.42;0.80;;;24.60;51.20;;;;;;6215766;23;20016;-43
2022/05/18 10:42:41;;;;;;;3.13;0.75;;;25.80;86.00;;;;;;6215418;23;20004;-43
2022/05/18 10:45:32;;;;;;;0.82;0.77;;;26.00;63.30;;;;;;6215892;23;19992;-43
2022/05/18 10:48:05;;;;;;;1.63;0.82;;;25.90;52.80;;;;;;6216335;23;20075;-44
2022/05/18 10:50:35;;;;;;;2.72;0.80;;;26.00;86.80;;;;;;6215873;23;20028;-43
2022/05/18 10:53:12;;;;;;;2.60;0.98;;;26.20;86.90;;;;;;6216250;23;20001;-44
2022/05/18 10:55:53;;;;;;;1.23;0.90;;;25.80;85.00;;;;;;6216082;23;20005;-45
2022/05/18 10:58:28;;;;;;;4.22;0.68;;;26.00;86.90;;;;;;6216127;23;20016;-44
2022/05/18 11:01:18;;;;;;;3.45;1.00;;;25.90;51.90;;;;;;6215893;23;20005;-44
2022/05/18 11:03:46;;;;;;;1.95;1.17;;;25.70;86.50;;;;;;6215381;23;20013;-44
2022/05/18 11:06:20;;;;;;;2.05;0.70;;;26.20;87.00;;;;;;6225638;23;20012;-45
2022/05/18 11:08:47;;;;;;;1.70;0.90;;;26.00;86.80;;;;;;6215315;23;20424;-44
2022/05/18 11:11:31;;;;;;;2.92;0.80;;;25.80;60.60;;;;;;6215586;23;19993;-44
2022/05/18 11:14:24;;;;;;;2.00;0.80;;;26.10;72.60;;;;;;6215123;23;20020;-44
2022/05/18 11:17:17;;;;;;;1.00;0.85;;;25.90;85.90;;;;;;6215350;23;20008;-44
2022/05/18 11:19:55;;;;;;;5.63;1.73;;;25.90;52.70;;;;;;6215450;23;20012;-45
2022/05/18 11:22:47;;;;;;;4.13;2.08;;;25.60;85.60;;;;;;6215468;23;20008;-44
2022/05/18 11:25:22;;;;;;;4.80;1.88;;;25.60;51.50;;;;;;6215513;23;19997;-44
2022/05/18 11:27:53;;;;;;;3.00;1.45;;;25.90;51.70;;;;;;6215467;23;20005;-44
2022/05/18 11:30:25;;;;;;;3.83;1.33;;;25.90;52.70;;;;;;6215352;23;20392;-44
2022/05/18 11:33:22;;;;;;;2.05;1.10;;;25.70;55.00;;;;;;6214945;23;19997;-45
2022/05/18 11:36:02;;;;;;;4.55;1.23;;;25.90;87.40;;;;;;6215729;23;20375;-44
2022/05/18 11:38:45;;;;;;;5.68;0.98;;;26.40;87.00;;;;;;6215668;23;20012;-44
2022/05/18 11:41:16;;;;;;;3.00;0.88;;;26.00;52.70;;;;;;6215446;23;20000;-44
2022/05/18 11:44:04;;;;;;;3.75;1.27;;;26.40;88.10;;;;;;6215874;23;20007;-43
2022/05/18 11:46:39;;;;;;;3.83;1.35;;;25.90;88.20;;;;;;6215542;23;20020;-44
2022/05/18 11:49:28;;;;;;;5.38;1.48;;;25.90;87.60;;;;;;6215495;23;20178;-45
2022/05/18 11:52:21;;;;;;;3.53;1.20;;;25.70;63.60;;;;;;6215468;23;20007;-44
2022/05/18 11:55:20;;;;;;;3.17;1.25;;;26.20;52.40;;;;;;6215436;23;20004;-45
2022/05/18 11:58:04;;;;;;;2.70;1.10;;;25.80;87.00;;;;;;6225457;23;20056;-45
2022/05/18 12:00:56;;;;;;;3.35;1.23;;;25.80;86.70;;;;;;6225630;23;20001;-45
2022/05/18 12:03:27;;;;;;;2.47;1.27;;;26.10;87.00;;;;;;6215313;23;20096;-44
2022/05/18 12:06:10;;;;;;;2.30;1.20;;;26.20;52.30;;;;;;6214990;23;19996;-46
2022/05/18 12:09:08;;;;;;;1.63;1.00;;;26.10;52.20;;;;;;6225248;23;19996;-44
2022/05/18 12:12:09;;;;;;;4.03;1.23;;;26.40;84.70;;;;;;6215557;23;20001;-45
2022/05/18 12:15:06;;;;;;;3.63;0.90;;;25.90;86.90;;;;;;6215407;23;20572;-44
2022/05/18 12:17:32;;;;;;;4.60;1.10;;;;;;;;;;6215313;23;20088;-44
2022/05/18 12:20:25;;;;;;;1.55;1.10;;;25.90;85.60;;;;;;6215330;23;20016;-44
2022/05/18 12:22:57;;;;;;;2.65;1.15;;;26.50;87.20;;;;;;6215126;23;20001;-45
2022/05/18 12:25:25;;;;;;;3.42;1.50;;;26.20;52.80;;;;;;6215352;23;19993;-44
2022/05/18 12:27:55;;;;;;;2.25;1.00;;;26.20;70.90;;;;;;6215204;23;19997;-45
2022/05/18 12:30:23;;;;;;;2.92;0.80;;;26.20;52.70;;;;;;6225053;23;19996;-45
2022/05/18 12:32:50;;;;;;;2.25;1.20;;;26.00;71.90;;;;;;6188298;23;20001;-45
2022/05/18 12:35:35;;;;;;;1.40;0.80;;;26.30;87.20;;;;;;6215127;23;20022;-44
2022/05/18 12:38:01;;;;;;;1.20;0.60;;;26.30;69.90;;;;;;6215222;23;20039;-44
2022/05/18 12:40:48;;;;;;;2.05;0.95;;;26.20;51.90;;;;;;6215237;23;19993;-44
2022/05/18 12:43:33;;;;;;;2.50;1.38;;;25.70;76.20;;;;;;6215060;23;20003;-44
2022/05/18 12:46:08;;;;;;;1.73;0.85;;;26.50;69.10;;;;;;6215129;23;20027;-45
2022/05/18 12:48:37;;;;;;;5.40;1.00;;;26.30;52.90;;;;;;6214608;23;20443;-44
2022/05/18 12:51:26;;;;;;;2.78;1.17;;;26.20;52.00;;;;;;6214659;23;20474;-44
2022/05/18 12:53:52;;;;;;;1.42;0.85;;;;;;;;;;6215101;23;20076;-44
2022/05/18 12:56:25;;;;;;;2.15;1.00;;;26.30;86.80;;;;;;6214753;23;20036;-56
2022/05/18 12:58:55;;;;;;;2.63;1.05;;;26.40;86.90;;;;;;6214402;23;20489;-56
2022/05/18 13:01:22;;;;;;;3.50;0.80;;;25.90;57.10;;;;;;6214732;23;20297;-57
2022/05/18 13:04:07;;;;;;;1.38;1.15;;;26.60;87.10;;;;;;6214636;23;20027;-57
2022/05/18 13:06:35;;;;;;;2.17;0.73;;;26.90;87.10;;;;;;6224504;23;20191;-56
2022/05/18 13:09:23;;;;;;;5.00;1.00;;;26.20;57.20;;;;;;6214509;23;20379;-57
2022/05/18 13:11:54;;;;;;;1.08;0.88;;;26.10;57.60;;;;;;6214329;23;20566;-56
2022/05/18 13:14:19;;;;;;;4.25;1.00;;;26.30;80.00;;;;;;6214300;23;19999;-55
2022/05/18 13:16:48;;;;;;;1.77;0.90;;;26.60;60.50;;;;;;6214612;23;20017;-56
2022/05/18 13:19:15;;;;;;;2.08;1.08;;;26.60;86.40;;;;;;6214654;23;20000;-53
2022/05/18 13:21:53;;;;;;;2.72;0.73;;;26.40;86.00;;;;;;6214900;23;20043;-57
2022/05/18 13:24:44;;;;;;;1.00;0.80;;;27.30;52.20;;;;;;6188964;23;20008;-57
2022/05/18 13:27:15;;;;;;;1.88;0.60;;;26.30;85.90;;;;;;6214824;23;20379;-57
2022/05/18 13:29:42;;;;;;;1.52;0.90;;;26.30;86.00;;;;;;6214852;23;20316;-57
2022/05/18 13:32:11;;;;;;;0.85;0.75;;;26.60;86.00;;;;;;6214703;23;19997;-55
2022/05/18 13:34:46;;;;;;;2.00;1.03;;;26.40;51.50;;;;;;6214051;23;20113;-56
2022/05/18 13:37:12;;;;;;;1.25;0.90;;;26.00;85.60;;;;;;6214740;23;20012;-56
2022/05/18 13:39:45;;;;;;;2.30;0.60;;;26.30;86.20;;;;;;6214708;23;20389;-56
2022/05/18 13:42:11;;;;;;;1.50;0.73;;;;;;;;;;6214679;23;20016;-56